sensor_id;sensor_type;location;lat;lon;timestamp;P1;P2;P0
65574;PMS5003;73096;55.050;73.422;2023-11-21T00:02:12;14.75;12.00;4.00
65574;PMS5003;73096;55.050;73.422;2023-11-21T00:05:15;16.50;13.75;4.25
65574;PMS5003;73096;55.050;73.422;2023-11-21T00:08:19;14.00;13.50;4.00
65574;PMS5003;73096;55.050;73.422;2023-11-21T00:11:23;12.00;11.00;4.00
65574;PMS5003;73096;55.050;73.422;2023-11-21T00:14:28;11.00;10.00;3.25
65574;PMS5003;73096;55.050;73.422;2023-11-21T00:17:31;10.00;8.00;2.00
65574;PMS5003;73096;55.050;73.422;2023-11-21T00:20:34;11.75;9.25;4.50
65574;PMS5003;73096;55.050;73.422;2023-11-21T00:23:35;12.50;10.00;4.00
65574;PMS5003;73096;55.050;73.422;2023-11-21T00:26:37;12.75;11.25;4.00
65574;PMS5003;73096;55.050;73.422;2023-11-21T00:29:41;12.00;11.25;4.00
65574;PMS5003;73096;55.050;73.422;2023-11-21T00:32:45;14.00;12.75;4.75
65574;PMS5003;73096;55.050;73.422;2023-11-21T00:35:48;14.50;14.00;5.00
65574;PMS5003;73096;55.050;73.422;2023-11-21T00:38:51;16.00;14.75;5.75
65574;PMS5003;73096;55.050;73.422;2023-11-21T00:41:54;18.33;16.33;8.00
65574;PMS5003;73096;55.050;73.422;2023-11-21T00:44:58;18.75;16.75;6.00
65574;PMS5003;73096;55.050;73.422;2023-11-21T00:48:01;15.00;13.00;5.00
65574;PMS5003;73096;55.050;73.422;2023-11-21T00:51:05;16.75;15.00;6.00
65574;PMS5003;73096;55.050;73.422;2023-11-21T00:54:09;19.00;16.25;5.75
65574;PMS5003;73096;55.050;73.422;2023-11-21T00:57:12;16.75;15.00;5.50
65574;PMS5003;73096;55.050;73.422;2023-11-21T01:00:15;19.00;17.00;6.00
65574;PMS5003;73096;55.050;73.422;2023-11-21T01:03:20;17.00;15.75;6.00
65574;PMS5003;73096;55.050;73.422;2023-11-21T01:06:22;17.75;16.25;6.00
65574;PMS5003;73096;55.050;73.422;2023-11-21T01:09:24;21.00;17.00;8.00
65574;PMS5003;73096;55.050;73.422;2023-11-21T01:12:27;20.25;16.50;6.00
65574;PMS5003;73096;55.050;73.422;2023-11-21T01:15:30;19.00;16.67;6.00
65574;PMS5003;73096;55.050;73.422;2023-11-21T01:18:36;19.67;17.00;7.00
65574;PMS5003;73096;55.050;73.422;2023-11-21T01:21:39;21.00;19.00;8.00
65574;PMS5003;73096;55.050;73.422;2023-11-21T01:24:42;21.00;19.00;9.00
65574;PMS5003;73096;55.050;73.422;2023-11-21T01:27:47;22.25;18.00;8.00
65574;PMS5003;73096;55.050;73.422;2023-11-21T01:30:50;18.33;17.00;6.00
65574;PMS5003;73096;55.050;73.422;2023-11-21T01:33:54;20.67;17.00;7.67
65574;PMS5003;73096;55.050;73.422;2023-11-21T01:36:58;20.75;16.50;7.25
65574;PMS5003;73096;55.050;73.422;2023-11-21T01:40:01;19.00;16.00;6.00
65574;PMS5003;73096;55.050;73.422;2023-11-21T01:43:06;16.67;14.00;4.00
65574;PMS5003;73096;55.050;73.422;2023-11-21T01:46:11;20.25;14.75;5.00
65574;PMS5003;73096;55.050;73.422;2023-11-21T01:49:14;24.75;18.25;9.00
65574;PMS5003;73096;55.050;73.422;2023-11-21T01:52:17;22.75;18.50;8.00
65574;PMS5003;73096;55.050;73.422;2023-11-21T01:55:21;18.50;16.00;6.00
65574;PMS5003;73096;55.050;73.422;2023-11-21T01:58:24;17.00;16.00;6.00
65574;PMS5003;73096;55.050;73.422;2023-11-21T02:01:27;16.00;14.00;6.00
65574;PMS5003;73096;55.050;73.422;2023-11-21T02:04:31;15.00;12.75;4.75
65574;PMS5003;73096;55.050;73.422;2023-11-21T02:07:34;15.00;12.75;5.25
65574;PMS5003;73096;55.050;73.422;2023-11-21T02:10:38;18.75;15.00;6.00
65574;PMS5003;73096;55.050;73.422;2023-11-21T02:13:40;16.25;14.00;4.00
65574;PMS5003;73096;55.050;73.422;2023-11-21T02:16:46;16.00;13.50;6.00
65574;PMS5003;73096;55.050;73.422;2023-11-21T02:19:52;13.75;11.00;4.00
65574;PMS5003;73096;55.050;73.422;2023-11-21T02:23:15;14.00;13.00;4.00
65574;PMS5003;73096;55.050;73.422;2023-11-21T02:26:19;14.00;11.50;4.00
65574;PMS5003;73096;55.050;73.422;2023-11-21T02:29:23;13.50;10.00;3.00
65574;PMS5003;73096;55.050;73.422;2023-11-21T02:32:30;12.00;9.00;2.00
65574;PMS5003;73096;55.050;73.422;2023-11-21T02:35:35;12.00;8.00;3.00
65574;PMS5003;73096;55.050;73.422;2023-11-21T02:38:38;11.00;10.00;3.00
65574;PMS5003;73096;55.050;73.422;2023-11-21T02:41:40;9.67;8.00;2.00
65574;PMS5003;73096;55.050;73.422;2023-11-21T02:44:42;12.00;9.50;3.25
65574;PMS5003;73096;55.050;73.422;2023-11-21T02:47:46;10.75;10.00;3.00
65574;PMS5003;73096;55.050;73.422;2023-11-21T02:50:49;11.25;10.00;2.50
65574;PMS5003;73096;55.050;73.422;2023-11-21T02:53:53;13.75;12.50;5.75
65574;PMS5003;73096;55.050;73.422;2023-11-21T03:01:10;15.00;13.00;5.00
65574;PMS5003;73096;55.050;73.422;2023-11-21T03:04:12;15.00;12.25;4.25
65574;PMS5003;73096;55.050;73.422;2023-11-21T03:07:20;13.00;13.00;4.00
65574;PMS5003;73096;55.050;73.422;2023-11-21T03:10:23;13.50;12.00;4.00
65574;PMS5003;73096;55.050;73.422;2023-11-21T03:19:06;11.00;9.00;3.00
65574;PMS5003;73096;55.050;73.422;2023-11-21T03:22:10;12.00;11.00;4.00
65574;PMS5003;73096;55.050;73.422;2023-11-21T03:25:13;11.75;10.25;3.00
65574;PMS5003;73096;55.050;73.422;2023-11-21T03:28:15;13.00;11.25;4.25
65574;PMS5003;73096;55.050;73.422;2023-11-21T03:31:18;12.00;11.25;3.75
65574;PMS5003;73096;55.050;73.422;2023-11-21T03:34:25;13.00;13.00;4.75
65574;PMS5003;73096;55.050;73.422;2023-11-21T03:41:27;13.00;11.00;3.00
65574;PMS5003;73096;55.050;73.422;2023-11-21T03:44:30;11.60;9.00;3.40
65574;PMS5003;73096;55.050;73.422;2023-11-21T03:47:34;11.00;8.60;3.00
65574;PMS5003;73096;55.050;73.422;2023-11-21T03:50:40;9.00;6.00;3.00
65574;PMS5003;73096;55.050;73.422;2023-11-21T03:53:45;10.00;7.00;3.00
65574;PMS5003;73096;55.050;73.422;2023-11-21T03:57:16;11.25;8.50;3.00
65574;PMS5003;73096;55.050;73.422;2023-11-21T04:00:22;15.50;11.50;4.75
65574;PMS5003;73096;55.050;73.422;2023-11-21T04:03:31;13.00;12.00;4.00
65574;PMS5003;73096;55.050;73.422;2023-11-21T04:06:33;13.50;11.00;4.50
65574;PMS5003;73096;55.050;73.422;2023-11-21T04:09:35;14.00;11.50;5.00
65574;PMS5003;73096;55.050;73.422;2023-11-21T04:12:41;15.50;13.00;5.50
65574;PMS5003;73096;55.050;73.422;2023-11-21T04:15:43;17.50;14.75;6.00
65574;PMS5003;73096;55.050;73.422;2023-11-21T04:18:45;16.25;14.00;5.25
65574;PMS5003;73096;55.050;73.422;2023-11-21T04:21:51;15.40;14.00;5.00
65574;PMS5003;73096;55.050;73.422;2023-11-21T04:24:53;18.00;15.50;6.50
65574;PMS5003;73096;55.050;73.422;2023-11-21T04:27:58;20.00;18.67;9.67
65574;PMS5003;73096;55.050;73.422;2023-11-21T04:31:01;20.00;19.40;10.00
65574;PMS5003;73096;55.050;73.422;2023-11-21T04:34:03;18.00;16.00;8.00
65574;PMS5003;73096;55.050;73.422;2023-11-21T04:37:06;18.00;16.00;7.00
65574;PMS5003;73096;55.050;73.422;2023-11-21T04:40:10;17.17;15.50;6.00
65574;PMS5003;73096;55.050;73.422;2023-11-21T04:43:18;18.50;16.75;8.00
65574;PMS5003;73096;55.050;73.422;2023-11-21T04:46:21;19.75;17.25;7.50
65574;PMS5003;73096;55.050;73.422;2023-11-21T04:49:24;22.00;18.00;9.00
65574;PMS5003;73096;55.050;73.422;2023-11-21T04:52:25;20.50;19.00;8.50
65574;PMS5003;73096;55.050;73.422;2023-11-21T04:55:28;22.00;20.00;10.00
65574;PMS5003;73096;55.050;73.422;2023-11-21T04:58:30;22.50;20.00;10.00
65574;PMS5003;73096;55.050;73.422;2023-11-21T05:01:32;21.00;19.00;9.00
65574;PMS5003;73096;55.050;73.422;2023-11-21T05:04:35;20.67;17.00;8.00
65574;PMS5003;73096;55.050;73.422;2023-11-21T05:07:38;20.00;18.00;8.00
65574;PMS5003;73096;55.050;73.422;2023-11-21T05:10:41;18.75;17.50;7.00
65574;PMS5003;73096;55.050;73.422;2023-11-21T05:13:42;19.25;17.25;6.00
65574;PMS5003;73096;55.050;73.422;2023-11-21T05:16:44;20.50;17.00;6.00
65574;PMS5003;73096;55.050;73.422;2023-11-21T05:19:46;21.50;18.00;8.00
65574;PMS5003;73096;55.050;73.422;2023-11-21T05:22:51;19.67;16.00;8.00
65574;PMS5003;73096;55.050;73.422;2023-11-21T05:25:52;18.00;16.25;8.00
65574;PMS5003;73096;55.050;73.422;2023-11-21T05:28:55;16.25;15.50;7.50
65574;PMS5003;73096;55.050;73.422;2023-11-21T05:31:58;16.00;14.00;6.00
65574;PMS5003;73096;55.050;73.422;2023-11-21T05:35:00;16.50;13.00;6.00
65574;PMS5003;73096;55.050;73.422;2023-11-21T05:38:02;16.75;14.00;6.00
65574;PMS5003;73096;55.050;73.422;2023-11-21T05:41:04;17.00;15.00;6.00
65574;PMS5003;73096;55.050;73.422;2023-11-21T05:44:06;18.00;14.50;8.00
65574;PMS5003;73096;55.050;73.422;2023-11-21T05:47:08;19.00;16.00;8.00
65574;PMS5003;73096;55.050;73.422;2023-11-21T05:50:11;18.67;16.33;8.00
65574;PMS5003;73096;55.050;73.422;2023-11-21T05:53:17;16.00;14.00;7.00
65574;PMS5003;73096;55.050;73.422;2023-11-21T05:56:18;15.75;12.25;5.50
65574;PMS5003;73096;55.050;73.422;2023-11-21T05:59:20;15.25;13.00;6.00
65574;PMS5003;73096;55.050;73.422;2023-11-21T06:02:22;14.00;12.00;5.25
65574;PMS5003;73096;55.050;73.422;2023-11-21T06:05:25;14.20;13.20;5.00
65574;PMS5003;73096;55.050;73.422;2023-11-21T06:08:27;14.00;13.00;6.00
65574;PMS5003;73096;55.050;73.422;2023-11-21T06:11:30;14.00;12.00;4.50
65574;PMS5003;73096;55.050;73.422;2023-11-21T06:14:33;17.00;14.75;7.00
65574;PMS5003;73096;55.050;73.422;2023-11-21T06:17:38;16.75;13.00;5.00
65574;PMS5003;73096;55.050;73.422;2023-11-21T06:20:42;14.00;12.00;6.00
65574;PMS5003;73096;55.050;73.422;2023-11-21T06:23:45;15.00;13.00;6.00
65574;PMS5003;73096;55.050;73.422;2023-11-21T06:26:59;14.75;13.75;6.00
65574;PMS5003;73096;55.050;73.422;2023-11-21T06:30:03;16.75;14.25;6.00
65574;PMS5003;73096;55.050;73.422;2023-11-21T06:33:07;15.00;15.00;6.00
65574;PMS5003;73096;55.050;73.422;2023-11-21T06:36:20;15.00;14.75;6.00
65574;PMS5003;73096;55.050;73.422;2023-11-21T06:39:25;14.75;14.25;6.00
65574;PMS5003;73096;55.050;73.422;2023-11-21T06:42:30;15.00;13.00;6.00
65574;PMS5003;73096;55.050;73.422;2023-11-21T06:49:59;16.00;14.25;4.25
65574;PMS5003;73096;55.050;73.422;2023-11-21T06:53:22;15.00;13.00;5.00
65574;PMS5003;73096;55.050;73.422;2023-11-21T07:00:17;19.00;15.00;6.00
65574;PMS5003;73096;55.050;73.422;2023-11-21T07:03:20;19.00;16.33;6.67
65574;PMS5003;73096;55.050;73.422;2023-11-21T07:06:23;16.00;15.00;5.00
65574;PMS5003;73096;55.050;73.422;2023-11-21T07:09:27;18.00;15.00;6.00
65574;PMS5003;73096;55.050;73.422;2023-11-21T07:16:38;14.25;14.00;5.00
65574;PMS5003;73096;55.050;73.422;2023-11-21T07:19:44;13.25;13.00;5.00
65574;PMS5003;73096;55.050;73.422;2023-11-21T07:22:51;13.00;11.50;4.00
65574;PMS5003;73096;55.050;73.422;2023-11-21T07:26:00;13.00;13.00;4.00
65574;PMS5003;73096;55.050;73.422;2023-11-21T07:29:08;12.50;11.25;4.00
65574;PMS5003;73096;55.050;73.422;2023-11-21T07:32:10;14.50;12.50;4.00
65574;PMS5003;73096;55.050;73.422;2023-11-21T07:35:14;11.00;9.50;4.00
65574;PMS5003;73096;55.050;73.422;2023-11-21T07:38:35;11.00;9.25;3.50
65574;PMS5003;73096;55.050;73.422;2023-11-21T07:41:41;11.00;11.00;5.00
65574;PMS5003;73096;55.050;73.422;2023-11-21T07:44:54;13.00;10.25;5.00
65574;PMS5003;73096;55.050;73.422;2023-11-21T07:47:58;11.00;10.00;4.00
65574;PMS5003;73096;55.050;73.422;2023-11-21T07:51:03;11.75;11.00;3.00
65574;PMS5003;73096;55.050;73.422;2023-11-21T07:54:06;12.00;11.00;4.00
65574;PMS5003;73096;55.050;73.422;2023-11-21T07:57:10;13.00;11.00;6.00
65574;PMS5003;73096;55.050;73.422;2023-11-21T08:04:23;13.00;12.00;5.00
65574;PMS5003;73096;55.050;73.422;2023-11-21T08:07:26;13.00;11.00;4.75
65574;PMS5003;73096;55.050;73.422;2023-11-21T08:10:30;12.00;11.00;5.00
65574;PMS5003;73096;55.050;73.422;2023-11-21T08:13:33;12.00;10.00;4.25
65574;PMS5003;73096;55.050;73.422;2023-11-21T08:16:36;12.00;10.00;6.00
65574;PMS5003;73096;55.050;73.422;2023-11-21T08:19:39;12.25;10.25;4.00
65574;PMS5003;73096;55.050;73.422;2023-11-21T08:22:43;12.00;11.00;6.00
65574;PMS5003;73096;55.050;73.422;2023-11-21T08:25:50;12.50;12.00;4.00
65574;PMS5003;73096;55.050;73.422;2023-11-21T08:28:53;13.25;13.00;5.00
65574;PMS5003;73096;55.050;73.422;2023-11-21T08:32:00;14.25;13.00;6.00
65574;PMS5003;73096;55.050;73.422;2023-11-21T08:35:05;14.00;13.00;6.00
65574;PMS5003;73096;55.050;73.422;2023-11-21T08:38:08;14.00;14.00;6.00
65574;PMS5003;73096;55.050;73.422;2023-11-21T08:41:13;15.50;13.00;6.00
65574;PMS5003;73096;55.050;73.422;2023-11-21T08:44:17;14.00;14.00;6.00
65574;PMS5003;73096;55.050;73.422;2023-11-21T08:47:21;13.75;13.00;6.00
65574;PMS5003;73096;55.050;73.422;2023-11-21T08:50:28;12.25;11.00;6.00
65574;PMS5003;73096;55.050;73.422;2023-11-21T08:53:33;12.50;11.00;4.25
65574;PMS5003;73096;55.050;73.422;2023-11-21T08:56:35;12.00;11.00;4.50
65574;PMS5003;73096;55.050;73.422;2023-11-21T08:59:39;14.00;13.00;6.00
65574;PMS5003;73096;55.050;73.422;2023-11-21T09:02:42;13.00;12.00;5.00
65574;PMS5003;73096;55.050;73.422;2023-11-21T09:05:45;13.00;13.00;6.00
65574;PMS5003;73096;55.050;73.422;2023-11-21T09:08:48;13.00;11.75;4.00
65574;PMS5003;73096;55.050;73.422;2023-11-21T09:11:51;12.75;11.00;5.00
65574;PMS5003;73096;55.050;73.422;2023-11-21T09:14:53;11.00;10.25;4.00
65574;PMS5003;73096;55.050;73.422;2023-11-21T09:17:55;12.00;11.00;4.00
65574;PMS5003;73096;55.050;73.422;2023-11-21T09:20:59;12.25;11.00;4.00
65574;PMS5003;73096;55.050;73.422;2023-11-21T09:24:01;11.00;9.00;4.00
65574;PMS5003;73096;55.050;73.422;2023-11-21T09:27:04;12.00;9.00;4.00
65574;PMS5003;73096;55.050;73.422;2023-11-21T09:30:07;11.00;8.00;3.00
65574;PMS5003;73096;55.050;73.422;2023-11-21T09:33:13;11.00;11.00;4.00
65574;PMS5003;73096;55.050;73.422;2023-11-21T09:36:17;11.75;10.00;4.00
65574;PMS5003;73096;55.050;73.422;2023-11-21T09:39:21;10.00;8.00;3.00
65574;PMS5003;73096;55.050;73.422;2023-11-21T09:42:30;9.00;6.00;3.00
65574;PMS5003;73096;55.050;73.422;2023-11-21T09:45:35;7.25;6.75;3.50
65574;PMS5003;73096;55.050;73.422;2023-11-21T09:48:38;10.50;8.00;4.00
65574;PMS5003;73096;55.050;73.422;2023-11-21T09:51:44;11.00;9.00;3.00
65574;PMS5003;73096;55.050;73.422;2023-11-21T09:54:47;10.75;9.00;3.00
65574;PMS5003;73096;55.050;73.422;2023-11-21T09:57:51;8.67;6.00;3.00
65574;PMS5003;73096;55.050;73.422;2023-11-21T10:00:55;8.00;6.00;4.00
65574;PMS5003;73096;55.050;73.422;2023-11-21T10:03:58;9.33;8.67;4.00
65574;PMS5003;73096;55.050;73.422;2023-11-21T10:07:03;11.00;8.00;4.00
65574;PMS5003;73096;55.050;73.422;2023-11-21T10:10:12;11.00;8.75;4.00
65574;PMS5003;73096;55.050;73.422;2023-11-21T10:16:48;13.00;12.00;5.00
65574;PMS5003;73096;55.050;73.422;2023-11-21T10:19:51;15.00;13.00;5.00
65574;PMS5003;73096;55.050;73.422;2023-11-21T10:22:55;14.00;13.00;5.67
65574;PMS5003;73096;55.050;73.422;2023-11-21T10:26:05;15.00;13.00;6.00
65574;PMS5003;73096;55.050;73.422;2023-11-21T10:29:10;15.00;14.00;5.00
65574;PMS5003;73096;55.050;73.422;2023-11-21T10:32:19;12.00;11.00;4.00
65574;PMS5003;73096;55.050;73.422;2023-11-21T10:35:22;11.00;9.00;2.50
65574;PMS5003;73096;55.050;73.422;2023-11-21T10:38:26;11.00;8.75;4.00
65574;PMS5003;73096;55.050;73.422;2023-11-21T10:41:32;12.00;8.50;4.00
65574;PMS5003;73096;55.050;73.422;2023-11-21T10:44:35;11.00;9.00;3.00
65574;PMS5003;73096;55.050;73.422;2023-11-21T10:47:38;9.00;7.67;4.00
65574;PMS5003;73096;55.050;73.422;2023-11-21T10:50:49;10.00;8.00;4.00
65574;PMS5003;73096;55.050;73.422;2023-11-21T10:53:52;9.00;8.75;4.00
65574;PMS5003;73096;55.050;73.422;2023-11-21T10:56:58;8.00;8.00;4.00
65574;PMS5003;73096;55.050;73.422;2023-11-21T11:00:06;9.50;7.75;4.00
65574;PMS5003;73096;55.050;73.422;2023-11-21T11:03:09;10.00;8.00;2.67
65574;PMS5003;73096;55.050;73.422;2023-11-21T11:06:16;8.00;6.25;4.00
65574;PMS5003;73096;55.050;73.422;2023-11-21T11:09:18;9.00;8.00;4.00
65574;PMS5003;73096;55.050;73.422;2023-11-21T11:12:20;8.00;6.00;2.75
65574;PMS5003;73096;55.050;73.422;2023-11-21T11:15:23;7.00;6.00;3.00
65574;PMS5003;73096;55.050;73.422;2023-11-21T11:18:26;4.25;4.25;3.00
65574;PMS5003;73096;55.050;73.422;2023-11-21T11:28:07;12.50;10.00;4.00
65574;PMS5003;73096;55.050;73.422;2023-11-21T11:34:28;8.00;8.00;2.00
65574;PMS5003;73096;55.050;73.422;2023-11-21T11:37:34;5.33;5.33;3.00
65574;PMS5003;73096;55.050;73.422;2023-11-21T11:40:38;8.00;7.00;2.00
65574;PMS5003;73096;55.050;73.422;2023-11-21T11:43:41;9.00;6.67;3.00
65574;PMS5003;73096;55.050;73.422;2023-11-21T11:46:46;9.00;6.75;2.00
65574;PMS5003;73096;55.050;73.422;2023-11-21T11:53:20;7.75;6.00;2.50
65574;PMS5003;73096;55.050;73.422;2023-11-21T11:59:28;11.00;10.00;3.75
65574;PMS5003;73096;55.050;73.422;2023-11-21T12:02:31;9.00;7.50;2.25
65574;PMS5003;73096;55.050;73.422;2023-11-21T12:05:34;7.00;6.00;2.00
65574;PMS5003;73096;55.050;73.422;2023-11-21T12:08:44;8.00;6.00;2.00
65574;PMS5003;73096;55.050;73.422;2023-11-21T12:11:48;8.00;6.00;2.50
65574;PMS5003;73096;55.050;73.422;2023-11-21T12:15:16;7.50;6.00;2.75
65574;PMS5003;73096;55.050;73.422;2023-11-21T12:18:18;6.00;6.00;2.00
65574;PMS5003;73096;55.050;73.422;2023-11-21T12:21:36;6.00;5.00;2.00
65574;PMS5003;73096;55.050;73.422;2023-11-21T12:24:39;7.67;6.00;2.00
65574;PMS5003;73096;55.050;73.422;2023-11-21T12:27:41;8.00;6.00;2.00
65574;PMS5003;73096;55.050;73.422;2023-11-21T12:30:43;6.00;6.00;2.75
65574;PMS5003;73096;55.050;73.422;2023-11-21T12:33:46;6.00;6.00;2.00
65574;PMS5003;73096;55.050;73.422;2023-11-21T12:36:49;9.00;8.75;4.00
65574;PMS5003;73096;55.050;73.422;2023-11-21T12:39:51;10.75;8.00;4.00
65574;PMS5003;73096;55.050;73.422;2023-11-21T12:42:56;12.00;8.00;3.00
65574;PMS5003;73096;55.050;73.422;2023-11-21T12:46:05;9.00;6.00;2.00
65574;PMS5003;73096;55.050;73.422;2023-11-21T12:49:08;10.67;8.00;3.00
65574;PMS5003;73096;55.050;73.422;2023-11-21T12:52:19;7.00;6.00;2.00
65574;PMS5003;73096;55.050;73.422;2023-11-21T12:55:23;6.50;6.00;2.00
65574;PMS5003;73096;55.050;73.422;2023-11-21T12:58:26;7.50;6.00;3.00
65574;PMS5003;73096;55.050;73.422;2023-11-21T13:01:28;8.00;6.00;2.00
65574;PMS5003;73096;55.050;73.422;2023-11-21T13:04:32;7.33;7.33;3.00
65574;PMS5003;73096;55.050;73.422;2023-11-21T13:07:42;6.00;6.00;2.00
65574;PMS5003;73096;55.050;73.422;2023-11-21T13:11:07;6.00;5.00;2.00
65574;PMS5003;73096;55.050;73.422;2023-11-21T13:14:28;6.00;4.33;2.00
65574;PMS5003;73096;55.050;73.422;2023-11-21T13:17:36;6.00;5.00;2.00
65574;PMS5003;73096;55.050;73.422;2023-11-21T13:20:54;5.00;4.00;2.00
65574;PMS5003;73096;55.050;73.422;2023-11-21T13:23:57;4.00;4.00;2.00
65574;PMS5003;73096;55.050;73.422;2023-11-21T13:26:59;5.00;5.00;2.00
65574;PMS5003;73096;55.050;73.422;2023-11-21T13:30:03;4.00;3.67;2.00
65574;PMS5003;73096;55.050;73.422;2023-11-21T13:33:06;3.75;2.75;0.00
65574;PMS5003;73096;55.050;73.422;2023-11-21T13:36:10;4.00;4.00;0.00
65574;PMS5003;73096;55.050;73.422;2023-11-21T13:39:28;2.00;2.00;1.00
65574;PMS5003;73096;55.050;73.422;2023-11-21T13:42:31;3.00;2.00;0.00
65574;PMS5003;73096;55.050;73.422;2023-11-21T13:45:38;4.00;4.00;0.00
65574;PMS5003;73096;55.050;73.422;2023-11-21T13:48:44;4.75;4.75;1.00
65574;PMS5003;73096;55.050;73.422;2023-11-21T13:51:52;6.00;6.00;2.00
65574;PMS5003;73096;55.050;73.422;2023-11-21T13:54:57;8.00;7.75;2.25
65574;PMS5003;73096;55.050;73.422;2023-11-21T13:58:00;6.50;6.00;3.00
65574;PMS5003;73096;55.050;73.422;2023-11-21T14:01:03;5.00;4.00;2.00
65574;PMS5003;73096;55.050;73.422;2023-11-21T14:04:08;4.00;4.00;2.00
65574;PMS5003;73096;55.050;73.422;2023-11-21T14:07:21;3.00;3.00;1.00
65574;PMS5003;73096;55.050;73.422;2023-11-21T14:10:38;4.00;3.00;2.00
65574;PMS5003;73096;55.050;73.422;2023-11-21T14:13:45;3.00;2.33;1.00
65574;PMS5003;73096;55.050;73.422;2023-11-21T14:16:50;4.00;4.00;1.00
65574;PMS5003;73096;55.050;73.422;2023-11-21T14:19:53;5.67;5.67;2.00
65574;PMS5003;73096;55.050;73.422;2023-11-21T14:22:57;4.00;4.00;2.00
65574;PMS5003;73096;55.050;73.422;2023-11-21T14:25:59;3.33;3.33;2.00
65574;PMS5003;73096;55.050;73.422;2023-11-21T14:29:03;4.00;3.00;1.00
65574;PMS5003;73096;55.050;73.422;2023-11-21T14:32:07;4.00;3.00;1.00
65574;PMS5003;73096;55.050;73.422;2023-11-21T14:35:09;4.00;3.00;1.00
65574;PMS5003;73096;55.050;73.422;2023-11-21T14:38:12;4.00;4.00;1.00
65574;PMS5003;73096;55.050;73.422;2023-11-21T14:41:16;3.00;3.00;0.25
65574;PMS5003;73096;55.050;73.422;2023-11-21T14:44:20;4.00;3.00;0.00
65574;PMS5003;73096;55.050;73.422;2023-11-21T14:47:27;4.00;2.67;1.00
65574;PMS5003;73096;55.050;73.422;2023-11-21T14:50:29;3.00;2.00;0.00
65574;PMS5003;73096;55.050;73.422;2023-11-21T14:53:44;2.00;2.00;0.00
65574;PMS5003;73096;55.050;73.422;2023-11-21T14:56:56;2.00;2.00;1.00
65574;PMS5003;73096;55.050;73.422;2023-11-21T14:59:58;2.00;2.00;0.00
65574;PMS5003;73096;55.050;73.422;2023-11-21T15:03:04;3.00;2.00;1.00
65574;PMS5003;73096;55.050;73.422;2023-11-21T15:06:07;4.00;3.00;2.00
65574;PMS5003;73096;55.050;73.422;2023-11-21T15:09:26;2.00;2.00;1.00
65574;PMS5003;73096;55.050;73.422;2023-11-21T15:12:47;2.00;2.00;0.00
65574;PMS5003;73096;55.050;73.422;2023-11-21T15:15:51;4.00;2.00;1.00
65574;PMS5003;73096;55.050;73.422;2023-11-21T15:18:56;3.00;2.00;0.00
65574;PMS5003;73096;55.050;73.422;2023-11-21T15:21:59;2.00;1.00;0.00
65574;PMS5003;73096;55.050;73.422;2023-11-21T15:25:02;2.00;1.00;0.00
65574;PMS5003;73096;55.050;73.422;2023-11-21T15:28:12;2.00;2.00;0.00
65574;PMS5003;73096;55.050;73.422;2023-11-21T15:31:14;1.75;1.75;0.00
65574;PMS5003;73096;55.050;73.422;2023-11-21T15:34:18;3.00;2.33;0.00
65574;PMS5003;73096;55.050;73.422;2023-11-21T15:37:20;1.00;1.00;0.00
65574;PMS5003;73096;55.050;73.422;2023-11-21T15:40:24;1.67;0.33;0.00
65574;PMS5003;73096;55.050;73.422;2023-11-21T15:43:26;4.00;3.00;0.00
65574;PMS5003;73096;55.050;73.422;2023-11-21T15:46:31;2.00;2.00;0.00
65574;PMS5003;73096;55.050;73.422;2023-11-21T15:49:34;1.00;1.00;0.00
65574;PMS5003;73096;55.050;73.422;2023-11-21T15:52:38;2.00;2.00;0.00
65574;PMS5003;73096;55.050;73.422;2023-11-21T15:55:42;2.00;2.00;0.00
65574;PMS5003;73096;55.050;73.422;2023-11-21T15:58:44;2.00;1.00;0.00
65574;PMS5003;73096;55.050;73.422;2023-11-21T16:01:48;3.00;3.00;1.00
65574;PMS5003;73096;55.050;73.422;2023-11-21T16:04:51;2.00;2.00;0.00
65574;PMS5003;73096;55.050;73.422;2023-11-21T16:07:53;2.00;1.67;0.00
65574;PMS5003;73096;55.050;73.422;2023-11-21T16:10:56;2.00;2.00;0.00
65574;PMS5003;73096;55.050;73.422;2023-11-21T16:13:59;2.33;2.00;0.00
65574;PMS5003;73096;55.050;73.422;2023-11-21T16:17:01;3.00;2.00;0.00
65574;PMS5003;73096;55.050;73.422;2023-11-21T16:20:04;2.00;2.00;0.00
65574;PMS5003;73096;55.050;73.422;2023-11-21T16:23:15;2.00;2.00;0.00
65574;PMS5003;73096;55.050;73.422;2023-11-21T16:26:18;3.00;3.00;1.00
65574;PMS5003;73096;55.050;73.422;2023-11-21T16:29:20;1.00;1.00;0.00
65574;PMS5003;73096;55.050;73.422;2023-11-21T16:32:23;3.00;2.00;0.00
65574;PMS5003;73096;55.050;73.422;2023-11-21T16:35:25;2.00;2.00;0.00
65574;PMS5003;73096;55.050;73.422;2023-11-21T16:38:28;2.67;2.00;0.00
65574;PMS5003;73096;55.050;73.422;2023-11-21T16:41:30;2.00;2.00;0.00
65574;PMS5003;73096;55.050;73.422;2023-11-21T16:44:33;3.00;2.00;0.00
65574;PMS5003;73096;55.050;73.422;2023-11-21T16:47:36;2.00;2.00;0.00
65574;PMS5003;73096;55.050;73.422;2023-11-21T16:50:38;2.00;2.00;0.00
65574;PMS5003;73096;55.050;73.422;2023-11-21T16:53:44;3.00;2.00;0.00
65574;PMS5003;73096;55.050;73.422;2023-11-21T16:56:46;2.00;2.00;0.00
65574;PMS5003;73096;55.050;73.422;2023-11-21T16:59:51;2.00;2.00;0.00
65574;PMS5003;73096;55.050;73.422;2023-11-21T17:02:54;2.00;2.00;0.00
65574;PMS5003;73096;55.050;73.422;2023-11-21T17:05:58;2.00;2.00;0.00
65574;PMS5003;73096;55.050;73.422;2023-11-21T17:09:02;1.00;0.00;0.00
65574;PMS5003;73096;55.050;73.422;2023-11-21T17:12:06;2.00;0.00;0.00
65574;PMS5003;73096;55.050;73.422;2023-11-21T17:15:21;2.00;1.00;0.00
65574;PMS5003;73096;55.050;73.422;2023-11-21T17:18:25;2.00;2.00;0.00
65574;PMS5003;73096;55.050;73.422;2023-11-21T17:21:27;3.00;2.00;0.00
65574;PMS5003;73096;55.050;73.422;2023-11-21T17:24:30;2.00;1.25;0.00
65574;PMS5003;73096;55.050;73.422;2023-11-21T17:27:35;1.00;1.00;0.00
65574;PMS5003;73096;55.050;73.422;2023-11-21T17:30:38;2.00;2.00;0.00
65574;PMS5003;73096;55.050;73.422;2023-11-21T17:33:40;1.00;1.00;0.00
65574;PMS5003;73096;55.050;73.422;2023-11-21T17:36:45;2.00;1.00;0.00
65574;PMS5003;73096;55.050;73.422;2023-11-21T17:39:48;2.00;2.00;0.00
65574;PMS5003;73096;55.050;73.422;2023-11-21T17:42:50;2.00;2.00;0.00
65574;PMS5003;73096;55.050;73.422;2023-11-21T17:45:52;2.00;2.00;0.00
65574;PMS5003;73096;55.050;73.422;2023-11-21T17:48:54;2.00;2.00;0.00
65574;PMS5003;73096;55.050;73.422;2023-11-21T17:51:57;2.00;1.00;0.00
65574;PMS5003;73096;55.050;73.422;2023-11-21T17:54:59;2.00;1.00;0.00
65574;PMS5003;73096;55.050;73.422;2023-11-21T17:58:01;2.00;1.00;0.00
65574;PMS5003;73096;55.050;73.422;2023-11-21T18:01:04;0.00;0.00;0.00
65574;PMS5003;73096;55.050;73.422;2023-11-21T18:04:06;2.00;2.00;0.00
65574;PMS5003;73096;55.050;73.422;2023-11-21T18:07:11;2.00;1.00;0.00
65574;PMS5003;73096;55.050;73.422;2023-11-21T18:10:14;2.00;2.00;0.00
65574;PMS5003;73096;55.050;73.422;2023-11-21T18:13:17;2.00;1.00;0.00
65574;PMS5003;73096;55.050;73.422;2023-11-21T18:16:20;3.00;2.00;0.00
65574;PMS5003;73096;55.050;73.422;2023-11-21T18:19:22;2.00;2.00;0.00